Sycamore, South Carolina
Current Conditions -  °F | °C
As of 11:15 AM on Tuesday 21 Oct 2014 (Local Time) from KBNL Reporting Station
Clear Clear  
Wind Chill: 72°   Ceiling: Unl
Heat Index: 72°   Visibility: 10mi
Dew Point: 54°   Wind: 6mph
Humidity: 53%   Direction: 300°WNW
Pressure: 29.99"   Gusts: NA
Location:  33.04°N, 81.22°W
Report Text: KBNL 211515Z AUTO 30005KT 10SM CLR 22/12 A2999 RMK AO2
Loading
Personal Weather Stations






























Interactive Weather Map
Tropical Storm Tracking
New forecast layout! Learn more

10-Day Weather Forecast

Advertisements
Track Severe Weather on mobile